Chassell, Michigan
Current Conditions -  °F | °C
As of 2:53 AM on Wednesday 22 Oct 2014 (Local Time) from KCMX Reporting Station
Clear Clear  
Wind Chill: -3°   Ceiling: Unl
Heat Index:   Visibility: 10mi
Dew Point: -1°   Wind: 5mph
Humidity: 92%   Direction: 90°E
Pressure: 30.29"   Gusts: NA
Location:  47.03°N, 88.53°W
Report Text: KCMX 220653Z AUTO 09004KT 10SM CLR 00/M01 A3029 RMK AO2 SLP267 T00001011
Loading
Personal Weather Stations






























Interactive Weather Map
Tropical Storm Tracking
New forecast layout! Learn more

10-Day Weather Forecast

Advertisements
Track Severe Weather on mobile